Time;durP1;ratioP1;P1;durP2;ratioP2;P2;SDS_P1;SDS_P2;PMS_P1;PMS_P2;Temp;Humidity;BMP_temperature;BMP_pressure;BME280_temperature;BME280_humidity;BME280_pressure;Samples;Min_cycle;Max_cycle;Signal;HPM_P1;HPM_P2
2023/09/19 00:01:06;;;;;;;2.53;0.73;;;17.80;1.00;;;;;;7388880;19;20026;-70
2023/09/19 00:03:37;;;;;;;1.83;0.80;;;17.70;1.00;;;;;;7388540;19;20011;-70
2023/09/19 00:06:09;;;;;;;2.25;0.88;;;17.80;1.00;;;;;;7388995;19;20398;-70
2023/09/19 00:08:39;;;;;;;2.20;0.90;;;17.80;1.00;;;;;;7387545;19;20367;-70
2023/09/19 00:11:11;;;;;;;2.50;0.88;;;17.70;4.30;;;;;;7388391;19;20022;-70
2023/09/19 00:13:41;;;;;;;3.30;1.00;;;17.60;6.70;;;;;;7388446;19;20066;-68
2023/09/19 00:16:14;;;;;;;2.15;0.90;;;17.60;8.30;;;;;;7388543;19;20018;-70
2023/09/19 00:18:44;;;;;;;1.60;0.70;;;17.60;9.10;;;;;;7381962;19;20015;-70
2023/09/19 00:21:15;;;;;;;1.90;0.90;;;17.60;9.40;;;;;;7384921;19;20067;-70
2023/09/19 00:23:45;;;;;;;3.38;0.90;;;17.60;9.50;;;;;;7387789;19;20017;-70
2023/09/19 00:26:18;;;;;;;1.38;1.10;;;17.60;7.80;;;;;;7388196;19;20088;-70
2023/09/19 00:28:48;;;;;;;2.20;0.90;;;17.60;8.20;;;;;;7386722;19;20478;-70
2023/09/19 00:31:18;;;;;;;3.47;0.80;;;17.50;6.90;;;;;;7387702;19;20021;-70
2023/09/19 00:33:48;;;;;;;2.00;1.00;;;17.50;9.70;;;;;;7386465;19;20026;-70
2023/09/19 00:36:18;;;;;;;2.20;1.23;;;17.50;10.40;;;;;;7388024;19;20035;-70
2023/09/19 00:38:48;;;;;;;2.65;1.00;;;17.50;12.20;;;;;;7386518;19;20070;-70
2023/09/19 00:41:21;;;;;;;2.75;1.08;;;17.50;10.10;;;;;;7386106;19;20683;-70
2023/09/19 00:43:51;;;;;;;1.77;0.93;;;17.40;11.60;;;;;;7387314;19;20010;-70
2023/09/19 00:46:21;;;;;;;1.73;0.90;;;17.40;11.80;;;;;;7386825;19;20023;-70
2023/09/19 00:48:51;;;;;;;1.60;0.80;;;17.40;10.20;;;;;;7386782;19;20478;-70
2023/09/19 00:51:22;;;;;;;1.45;0.98;;;17.40;12.50;;;;;;7387239;19;20021;-69
2023/09/19 00:53:53;;;;;;;3.50;1.13;;;17.40;12.00;;;;;;7387689;19;20018;-69
2023/09/19 00:56:26;;;;;;;1.10;0.88;;;17.40;14.10;;;;;;7387504;19;20014;-69
2023/09/19 00:58:57;;;;;;;2.05;0.82;;;17.40;14.00;;;;;;7391012;19;20014;-69
2023/09/19 01:01:27;;;;;;;3.03;1.23;;;17.40;11.90;;;;;;7393882;19;20018;-69
2023/09/19 01:03:57;;;;;;;1.52;1.00;;;17.40;15.20;;;;;;7393118;19;20010;-69
2023/09/19 01:06:28;;;;;;;1.40;0.75;;;17.40;13.80;;;;;;7392571;19;20006;-69
2023/09/19 01:08:58;;;;;;;2.55;1.02;;;17.40;13.10;;;;;;7394211;19;20081;-69
2023/09/19 01:11:39;;;;;;;1.27;0.82;;;17.40;11.40;;;;;;7394055;19;20019;-69
2023/09/19 01:14:23;;;;;;;1.73;0.90;;;17.40;11.70;;;;;;7394763;19;20466;-69
2023/09/19 01:16:59;;;;;;;1.70;0.60;;;17.30;12.10;;;;;;7392026;19;20032;-69
2023/09/19 01:20:00;;;;;;;1.33;0.80;;;17.30;10.70;;;;;;7394044;19;20079;-69
2023/09/19 01:22:39;;;;;;;1.88;0.70;;;17.30;11.10;;;;;;7393461;19;20177;-69
2023/09/19 01:25:44;;;;;;;2.17;0.75;;;17.40;10.50;;;;;;7394468;19;20014;-69
2023/09/19 01:28:36;;;;;;;2.35;1.05;;;17.30;10.40;;;;;;7390511;19;20010;-69
2023/09/19 01:31:12;;;;;;;3.28;0.80;;;17.30;10.40;;;;;;7393240;19;20010;-68
2023/09/19 01:34:04;;;;;;;1.83;1.00;;;17.30;12.50;;;;;;7392322;19;20031;-70
2023/09/19 01:36:38;;;;;;;2.03;0.80;;;17.30;9.70;;;;;;7393702;19;20019;-69
2023/09/19 01:39:13;;;;;;;1.30;0.90;;;17.30;9.20;;;;;;7393910;19;20018;-70
2023/09/19 01:42:04;;;;;;;3.15;1.15;;;17.30;8.90;;;;;;7392968;19;20489;-69
2023/09/19 01:44:43;;;;;;;2.83;0.85;;;17.30;11.60;;;;;;7393628;19;20112;-68
2023/09/19 01:47:22;;;;;;;2.85;1.10;;;17.20;13.40;;;;;;7392624;19;20011;-69
2023/09/19 01:49:58;;;;;;;2.90;1.38;;;17.20;13.50;;;;;;7393361;19;20003;-70
2023/09/19 01:52:33;;;;;;;1.67;0.85;;;17.10;13.00;;;;;;7391072;19;20095;-70
2023/09/19 01:55:08;;;;;;;1.83;0.68;;;17.10;16.90;;;;;;7392669;19;20495;-70
2023/09/19 01:57:44;;;;;;;0.75;0.60;;;17.00;16.80;;;;;;7391936;19;20022;-69
2023/09/19 02:00:17;;;;;;;2.17;0.90;;;17.00;17.70;;;;;;7392718;19;20037;-70
2023/09/19 02:02:52;;;;;;;1.33;0.70;;;16.90;20.40;;;;;;7391918;19;20018;-69
2023/09/19 02:05:27;;;;;;;2.47;0.80;;;16.90;21.80;;;;;;7392812;19;20093;-70
2023/09/19 02:07:58;;;;;;;1.35;0.70;;;16.80;22.50;;;;;;7391717;19;20070;-69
2023/09/19 02:10:28;;;;;;;2.10;0.90;;;16.80;25.00;;;;;;7390058;19;20099;-69
2023/09/19 02:12:59;;;;;;;3.05;1.02;;;16.80;24.70;;;;;;7390474;19;20006;-69
2023/09/19 02:15:32;;;;;;;3.58;0.88;;;16.80;25.70;;;;;;7392130;19;20029;-69
2023/09/19 02:18:05;;;;;;;1.48;0.93;;;16.80;24.80;;;;;;7391757;19;20026;-69
2023/09/19 02:20:35;;;;;;;1.23;0.95;;;16.70;27.00;;;;;;7392790;19;20018;-71
2023/09/19 02:23:05;;;;;;;2.25;0.80;;;16.70;27.30;;;;;;7391477;19;20026;-70
2023/09/19 02:25:35;;;;;;;3.35;0.80;;;16.60;29.30;;;;;;7391915;19;20052;-69
2023/09/19 02:28:06;;;;;;;3.03;0.80;;;16.60;30.40;;;;;;7389336;19;20034;-68
2023/09/19 02:30:36;;;;;;;1.98;1.10;;;16.50;34.10;;;;;;7391847;19;20014;-70
2023/09/19 02:33:09;;;;;;;2.47;0.80;;;16.50;36.40;;;;;;7391824;19;20018;-70
2023/09/19 02:35:39;;;;;;;1.55;0.80;;;16.40;38.10;;;;;;7391720;19;20015;-69
2023/09/19 02:38:11;;;;;;;1.85;1.05;;;16.40;40.30;;;;;;7390867;19;20019;-70
2023/09/19 02:40:43;;;;;;;1.83;1.25;;;16.40;36.60;;;;;;7390758;19;20007;-70
2023/09/19 02:43:13;;;;;;;1.58;0.80;;;16.40;38.00;;;;;;7391220;19;20015;-70
2023/09/19 02:45:43;;;;;;;2.65;1.00;;;16.40;41.50;;;;;;7391295;19;20014;-70
2023/09/19 02:48:16;;;;;;;1.58;0.80;;;16.30;40.30;;;;;;7390834;19;20018;-69
2023/09/19 02:50:46;;;;;;;1.13;0.60;;;16.40;36.10;;;;;;7391619;19;20014;-69
2023/09/19 02:53:16;;;;;;;2.22;1.00;;;16.50;34.30;;;;;;7390478;19;20010;-69
2023/09/19 02:55:43;;;;;;;1.00;0.70;;;16.50;31.50;;;;;;7391460;19;20368;-69
2023/09/19 02:58:14;;;;;;;1.67;0.80;;;16.50;28.90;;;;;;7388625;19;20018;-69
2023/09/19 03:00:47;;;;;;;1.45;0.85;;;16.60;25.80;;;;;;7390836;19;20018;-69
2023/09/19 03:03:21;;;;;;;1.70;1.00;;;16.60;26.30;;;;;;7390876;19;20054;-69
2023/09/19 03:05:53;;;;;;;2.95;1.08;;;16.60;25.90;;;;;;7390832;19;20006;-69
2023/09/19 03:08:24;;;;;;;1.08;0.82;;;16.70;23.50;;;;;;7389894;19;20018;-70
2023/09/19 03:10:54;;;;;;;1.42;0.88;;;16.70;23.60;;;;;;7389236;19;20018;-70
2023/09/19 03:13:25;;;;;;;2.70;1.00;;;16.70;25.00;;;;;;7390744;19;20013;-69
2023/09/19 03:15:58;;;;;;;1.60;1.00;;;16.70;20.60;;;;;;7390770;19;20355;-69
2023/09/19 03:18:31;;;;;;;1.58;0.80;;;16.70;19.50;;;;;;7389261;19;20389;-69
2023/09/19 03:21:02;;;;;;;2.30;0.90;;;16.80;14.70;;;;;;7388778;19;20002;-69
2023/09/19 03:23:33;;;;;;;1.05;0.80;;;16.80;15.30;;;;;;7390760;19;20011;-70
2023/09/19 03:26:04;;;;;;;2.40;0.90;;;16.90;17.90;;;;;;7390297;19;20014;-70
2023/09/19 03:28:36;;;;;;;3.42;1.00;;;16.80;15.50;;;;;;7389284;19;20014;-70
2023/09/19 03:31:08;;;;;;;1.98;0.80;;;16.90;17.40;;;;;;7390513;19;20010;-68
2023/09/19 03:33:40;;;;;;;1.90;0.90;;;16.90;24.00;;;;;;7390612;19;20012;-70
2023/09/19 03:36:10;;;;;;;2.63;1.20;;;16.80;24.10;;;;;;7389334;19;20011;-69
2023/09/19 03:38:41;;;;;;;1.52;0.93;;;16.80;28.70;;;;;;7389149;19;20526;-70
2023/09/19 03:41:14;;;;;;;2.40;0.98;;;16.80;33.20;;;;;;7388939;19;20014;-70
2023/09/19 03:43:44;;;;;;;2.73;1.07;;;16.70;33.30;;;;;;7389984;19;20296;-69
2023/09/19 03:46:14;;;;;;;3.03;1.02;;;16.80;36.80;;;;;;7390031;19;20006;-70
2023/09/19 03:48:47;;;;;;;2.17;0.98;;;16.80;34.70;;;;;;7389803;19;20029;-68
2023/09/19 03:51:17;;;;;;;1.30;0.70;;;16.70;43.00;;;;;;7389305;19;20078;-71
2023/09/19 03:53:49;;;;;;;2.00;0.70;;;16.70;51.20;;;;;;7389536;19;20032;-69
2023/09/19 03:56:19;;;;;;;1.75;0.88;;;16.60;47.50;;;;;;7388239;19;20511;-68
2023/09/19 03:58:49;;;;;;;0.85;0.68;;;16.60;55.30;;;;;;7389219;19;20099;-69
2023/09/19 04:01:19;;;;;;;2.20;1.13;;;16.50;52.80;;;;;;7389009;19;20007;-69
2023/09/19 04:03:53;;;;;;;2.70;1.00;;;16.50;60.90;;;;;;7389400;19;20023;-69
2023/09/19 04:06:23;;;;;;;2.47;1.20;;;16.60;64.10;;;;;;7387900;19;20025;-69
2023/09/19 04:08:54;;;;;;;2.70;1.13;;;16.40;55.30;;;;;;7387460;19;20014;-68
2023/09/19 04:11:24;;;;;;;1.50;1.00;;;16.50;68.50;;;;;;7391651;19;20486;-69
2023/09/19 04:13:54;;;;;;;1.50;0.85;;;16.50;62.10;;;;;;7393707;19;20070;-70
2023/09/19 04:16:24;;;;;;;2.45;1.10;;;16.50;67.70;;;;;;7390700;19;20466;-67
2023/09/19 04:18:57;;;;;;;2.25;1.05;;;16.50;67.90;;;;;;7388501;19;20022;-67
2023/09/19 04:21:28;;;;;;;4.43;1.38;;;16.50;63.90;;;;;;7389033;19;20491;-68
2023/09/19 04:23:58;;;;;;;2.58;1.02;;;16.60;68.20;;;;;;7389277;19;20003;-67
2023/09/19 04:26:28;;;;;;;2.83;1.10;;;16.60;66.40;;;;;;7388921;19;20023;-68
2023/09/19 04:28:58;;;;;;;2.33;1.20;;;16.60;72.20;;;;;;7387836;19;20017;-70
2023/09/19 04:31:29;;;;;;;1.70;1.10;;;16.50;75.20;;;;;;7388475;19;20014;-70
2023/09/19 04:34:05;;;;;;;4.00;1.00;;;16.50;68.40;;;;;;7390410;19;20006;-70
2023/09/19 04:36:36;;;;;;;1.50;0.93;;;16.50;71.20;;;;;;7395045;19;20022;-69
2023/09/19 04:39:08;;;;;;;1.48;0.90;;;16.50;74.30;;;;;;7395585;19;20024;-69
2023/09/19 04:41:38;;;;;;;3.55;1.10;;;16.50;71.00;;;;;;7394462;19;20511;-69
2023/09/19 04:44:08;;;;;;;2.78;1.10;;;16.50;71.80;;;;;;7395692;19;20052;-69
2023/09/19 04:46:38;;;;;;;2.38;1.40;;;16.40;64.10;;;;;;7394481;19;20022;-69
2023/09/19 04:49:11;;;;;;;2.17;1.20;;;16.40;61.70;;;;;;7395248;19;20014;-69
2023/09/19 04:51:42;;;;;;;2.63;1.23;;;16.40;61.60;;;;;;7394283;19;20435;-69
2023/09/19 04:54:12;;;;;;;2.72;1.10;;;16.50;60.40;;;;;;7395015;19;20039;-69
2023/09/19 04:56:42;;;;;;;3.40;1.50;;;16.50;68.20;;;;;;7393894;19;20022;-69
2023/09/19 04:59:14;;;;;;;2.83;1.05;;;16.50;65.50;;;;;;7395336;19;20034;-70
2023/09/19 05:01:44;;;;;;;3.75;1.50;;;16.50;74.70;;;;;;7394333;19;20014;-69
2023/09/19 05:04:17;;;;;;;4.25;1.52;;;16.50;88.00;;;;;;7395268;19;20466;-70
2023/09/19 05:06:47;;;;;;;1.98;1.45;;;16.30;96.80;;;;;;7393440;19;20010;-69
2023/09/19 05:09:19;;;;;;;3.30;1.52;;;16.30;99.90;;;;;;7394723;19;20011;-69
2023/09/19 05:11:51;;;;;;;3.45;1.45;;;16.30;99.90;;;;;;7393638;19;20019;-68
2023/09/19 05:14:22;;;;;;;3.60;1.65;;;16.30;99.90;;;;;;7394942;19;20010;-69
2023/09/19 05:16:52;;;;;;;3.25;1.80;;;16.20;99.90;;;;;;7393268;19;20014;-69
2023/09/19 05:19:25;;;;;;;3.00;2.00;;;16.10;99.90;;;;;;7395048;19;20035;-69
2023/09/19 05:21:55;;;;;;;5.30;2.17;;;16.00;99.90;;;;;;7393359;19;20014;-69
2023/09/19 05:24:26;;;;;;;6.13;2.55;;;15.90;99.90;;;;;;7394627;19;20014;-69
2023/09/19 05:26:56;;;;;;;5.63;2.90;;;16.00;99.90;;;;;;7393430;19;20085;-70
2023/09/19 05:29:26;;;;;;;2.20;2.00;;;15.80;99.90;;;;;;7393864;19;20046;-69
2023/09/19 05:31:56;;;;;;;5.70;2.55;;;15.80;99.90;;;;;;7393241;19;20435;-68
2023/09/19 05:34:30;;;;;;;3.33;1.77;;;15.80;99.90;;;;;;7394306;19;20426;-68
2023/09/19 05:37:00;;;;;;;3.28;2.22;;;15.70;99.90;;;;;;7392916;19;20329;-68
2023/09/19 05:39:30;;;;;;;3.60;2.28;;;15.60;99.90;;;;;;7393552;19;20113;-69
2023/09/19 05:42:00;;;;;;;3.38;2.10;;;15.70;99.90;;;;;;7392674;19;20008;-69
2023/09/19 05:44:29;;;;;;;3.45;2.95;;;15.70;99.90;;;;;;7393522;19;20011;-69
2023/09/19 05:46:59;;;;;;;3.03;2.33;;;15.70;99.90;;;;;;7393003;19;20073;-70
2023/09/19 05:49:32;;;;;;;3.35;2.25;;;15.80;99.90;;;;;;7393662;19;20030;-68
2023/09/19 05:52:03;;;;;;;5.70;2.72;;;15.80;99.90;;;;;;7392713;19;20022;-69
2023/09/19 05:54:33;;;;;;;3.08;2.22;;;15.80;99.90;;;;;;7392346;19;20014;-70
2023/09/19 05:57:03;;;;;;;5.43;2.35;;;15.90;99.90;;;;;;7392281;19;20042;-69
2023/09/19 05:59:34;;;;;;;6.15;2.33;;;15.90;99.90;;;;;;7393318;19;20022;-70
2023/09/19 06:02:05;;;;;;;6.93;2.80;;;15.90;99.90;;;;;;7392357;19;20082;-69
2023/09/19 06:04:40;;;;;;;4.63;2.80;;;16.00;99.90;;;;;;7392643;19;20078;-70
2023/09/19 06:07:11;;;;;;;5.13;2.40;;;16.00;99.90;;;;;;7391601;19;20018;-69
2023/09/19 06:09:40;;;;;;;6.32;2.30;;;15.80;99.90;;;;;;7391385;19;20092;-70
2023/09/19 06:12:12;;;;;;;5.22;2.50;;;15.60;99.90;;;;;;7389997;19;20085;-70
2023/09/19 06:14:43;;;;;;;4.43;2.40;;;15.60;99.90;;;;;;7393389;19;20036;-70
2023/09/19 06:17:13;;;;;;;5.97;2.72;;;15.60;99.90;;;;;;7391084;19;20018;-70
2023/09/19 06:19:47;;;;;;;4.45;2.40;;;15.60;99.90;;;;;;7392244;19;20513;-70
2023/09/19 06:22:17;;;;;;;;;;;15.70;99.90;;;;;;7389768;19;20078;-69
2023/09/19 06:24:48;;;;;;;4.70;2.65;;;15.70;99.90;;;;;;7391665;19;19956;-69
2023/09/19 06:27:18;;;;;;;3.95;2.22;;;15.70;99.90;;;;;;7390616;19;20131;-70
2023/09/19 06:29:48;;;;;;;6.30;2.47;;;15.80;99.90;;;;;;7391486;19;20002;-71
2023/09/19 06:32:18;;;;;;;4.25;1.90;;;15.80;99.90;;;;;;7390633;19;20591;-70
2023/09/19 06:34:54;;;;;;;3.83;2.13;;;15.80;94.50;;;;;;7391778;19;20592;-69
2023/09/19 06:37:25;;;;;;;4.22;2.40;;;15.90;96.90;;;;;;7391041;19;20042;-71
2023/09/19 06:39:56;;;;;;;6.53;2.10;;;15.90;93.30;;;;;;7390994;19;20010;-68
2023/09/19 06:42:28;;;;;;;4.75;2.13;;;16.00;90.20;;;;;;7390752;19;20022;-70
2023/09/19 06:44:58;;;;;;;5.82;2.15;;;16.00;74.80;;;;;;7391341;19;20105;-70
2023/09/19 06:47:28;;;;;;;5.53;1.90;;;16.00;75.50;;;;;;7388993;19;20407;-70
2023/09/19 06:50:02;;;;;;;4.20;1.83;;;16.10;56.00;;;;;;7390394;19;20082;-69
2023/09/19 06:52:32;;;;;;;6.72;2.85;;;16.30;56.10;;;;;;7387633;19;20018;-70
2023/09/19 06:55:03;;;;;;;4.63;2.40;;;16.40;46.40;;;;;;7390726;19;20014;-69
2023/09/19 06:57:33;;;;;;;6.80;2.10;;;16.40;30.70;;;;;;7388856;19;20011;-70
2023/09/19 07:00:07;;;;;;;9.82;2.40;;;16.60;42.50;;;;;;7390898;19;20006;-69
2023/09/19 07:02:37;;;;;;;5.10;1.90;;;16.70;25.20;;;;;;7390256;19;20015;-69
2023/09/19 07:05:10;;;;;;;8.85;2.13;;;16.60;19.80;;;;;;7389899;19;20085;-70
2023/09/19 07:07:40;;;;;;;3.45;1.95;;;16.80;21.60;;;;;;7389906;19;20018;-70
2023/09/19 07:10:13;;;;;;;6.43;1.90;;;16.80;24.30;;;;;;7390706;19;20014;-70
2023/09/19 07:12:43;;;;;;;4.35;1.90;;;16.90;17.90;;;;;;7390735;19;20039;-69
2023/09/19 07:15:13;;;;;;;4.60;2.33;;;16.80;17.20;;;;;;7390569;19;20039;-70
2023/09/19 07:17:43;;;;;;;3.83;2.20;;;16.90;20.20;;;;;;7390206;19;20018;-71
2023/09/19 07:20:16;;;;;;;4.20;1.80;;;16.70;8.60;;;;;;7390307;19;20021;-70
2023/09/19 07:22:46;;;;;;;4.18;1.88;;;16.80;18.20;;;;;;7389734;19;20493;-70
2023/09/19 07:25:16;;;;;;;7.15;2.58;;;16.90;27.70;;;;;;7389939;19;20095;-69
2023/09/19 07:27:46;;;;;;;5.90;1.80;;;17.00;24.60;;;;;;7389295;19;20014;-69
2023/09/19 07:30:16;;;;;;;5.82;1.80;;;17.00;21.50;;;;;;7390518;19;20074;-70
2023/09/19 07:32:46;;;;;;;4.65;2.05;;;17.10;20.70;;;;;;7389263;19;20019;-69
2023/09/19 07:35:19;;;;;;;6.88;2.00;;;16.80;11.90;;;;;;7389976;19;20328;-70
2023/09/19 07:37:51;;;;;;;5.37;2.20;;;17.00;18.90;;;;;;7386435;19;20014;-71
2023/09/19 07:40:23;;;;;;;6.25;1.90;;;17.10;13.60;;;;;;7391047;19;20267;-69
2023/09/19 07:42:53;;;;;;;6.82;2.15;;;17.20;6.80;;;;;;7387311;19;20030;-69
2023/09/19 07:45:25;;;;;;;5.35;1.92;;;17.30;9.30;;;;;;7388803;19;20078;-69
2023/09/19 07:47:55;;;;;;;4.55;2.00;;;17.20;7.00;;;;;;7388909;19;19998;-68
2023/09/19 07:50:28;;;;;;;6.03;1.70;;;17.40;8.60;;;;;;7390298;19;20035;-69
2023/09/19 07:52:58;;;;;;;5.72;1.83;;;17.40;5.60;;;;;;7389197;19;20080;-69
2023/09/19 07:55:28;;;;;;;4.40;1.95;;;17.20;8.20;;;;;;7390279;19;20014;-69
2023/09/19 07:57:59;;;;;;;3.63;1.80;;;17.20;10.90;;;;;;7389792;19;20069;-69
2023/09/19 08:00:29;;;;;;;6.40;2.28;;;17.10;3.10;;;;;;7389937;19;20446;-69
2023/09/19 08:02:59;;;;;;;5.57;1.70;;;17.20;5.50;;;;;;7388903;19;20009;-70
2023/09/19 08:05:41;;;;;;;5.53;1.63;;;17.00;1.00;;;;;;7389991;19;20477;-70
2023/09/19 08:08:13;;;;;;;3.40;1.80;;;17.20;1.00;;;;;;7389952;19;20019;-70
2023/09/19 08:10:45;;;;;;;3.95;1.92;;;17.60;5.80;;;;;;7396621;19;20074;-70
2023/09/19 08:13:17;;;;;;;2.38;1.50;;;17.60;1.00;;;;;;7395862;19;20090;-69
2023/09/19 08:15:47;;;;;;;2.75;1.45;;;17.60;1.00;;;;;;7396182;19;20035;-69
2023/09/19 08:18:18;;;;;;;2.97;1.13;;;17.90;1.00;;;;;;7394793;19;20026;-70
2023/09/19 08:20:55;;;;;;;3.65;1.40;;;17.90;1.00;;;;;;7395117;19;20010;-68
2023/09/19 08:23:25;;;;;;;2.15;1.40;;;17.90;1.00;;;;;;7396116;19;20367;-71
2023/09/19 08:26:06;;;;;;;4.18;1.00;;;18.00;1.00;;;;;;7395140;19;20007;-70
2023/09/19 08:28:36;;;;;;;4.22;1.30;;;18.00;1.00;;;;;;7394447;19;20081;-70
2023/09/19 08:31:08;;;;;;;3.55;1.13;;;18.10;1.00;;;;;;7394589;19;20026;-72
2023/09/19 08:33:40;;;;;;;2.38;1.20;;;18.10;1.00;;;;;;7395219;19;20038;-70
2023/09/19 08:36:14;;;;;;;2.28;1.20;;;18.00;1.00;;;;;;7395188;19;20613;-70
2023/09/19 08:38:44;;;;;;;3.90;1.27;;;18.20;1.00;;;;;;7394945;19;20027;-70
2023/09/19 08:41:14;;;;;;;2.35;1.02;;;18.60;1.00;;;;;;7393975;19;20010;-69
2023/09/19 08:43:44;;;;;;;1.63;0.80;;;18.70;1.00;;;;;;7395443;19;20026;-70
2023/09/19 08:46:17;;;;;;;2.05;0.90;;;18.70;1.00;;;;;;7394573;19;20042;-71
2023/09/19 08:48:53;;;;;;;3.28;1.08;;;18.70;1.00;;;;;;7394187;19;20094;-70
2023/09/19 08:51:33;;;;;;;3.22;1.13;;;19.00;1.00;;;;;;7393788;19;20011;-70
2023/09/19 08:54:09;;;;;;;1.77;1.10;;;18.90;1.00;;;;;;7393448;19;20010;-70
2023/09/19 08:56:42;;;;;;;3.05;1.45;;;19.20;1.00;;;;;;7394477;19;20035;-69
2023/09/19 08:59:13;;;;;;;5.35;1.17;;;19.00;1.00;;;;;;7393212;19;20022;-70
2023/09/19 09:01:44;;;;;;;2.17;1.17;;;19.10;1.00;;;;;;7394156;19;20035;-71
2023/09/19 09:04:15;;;;;;;1.83;1.10;;;19.00;1.00;;;;;;7394199;19;20077;-69
2023/09/19 09:06:48;;;;;;;1.65;1.10;;;19.20;1.00;;;;;;7393821;19;20014;-70
2023/09/19 09:09:19;;;;;;;2.38;1.20;;;19.60;1.00;;;;;;7394331;19;20014;-70
2023/09/19 09:11:52;;;;;;;2.38;1.17;;;20.10;1.00;;;;;;7393841;19;20521;-71
2023/09/19 09:14:24;;;;;;;1.63;1.10;;;19.80;1.00;;;;;;7393113;19;20015;-71
2023/09/19 09:16:56;;;;;;;4.47;1.30;;;20.10;1.00;;;;;;7389979;19;20026;-69
2023/09/19 09:19:26;;;;;;;3.00;1.10;;;20.00;1.00;;;;;;7392975;19;20073;-70
2023/09/19 09:22:09;;;;;;;2.40;0.98;;;20.40;1.00;;;;;;7393403;19;20010;-70
2023/09/19 09:24:40;;;;;;;2.70;1.00;;;20.70;1.00;;;;;;7394124;19;20045;-70
2023/09/19 09:27:10;;;;;;;3.95;1.20;;;20.70;1.00;;;;;;7393379;19;20014;-70
2023/09/19 09:29:43;;;;;;;3.08;1.00;;;20.40;1.00;;;;;;7394421;19;20814;-70
2023/09/19 09:32:24;;;;;;;2.72;0.90;;;20.80;1.00;;;;;;7392817;19;20472;-70
2023/09/19 09:34:55;;;;;;;3.08;1.10;;;21.10;1.00;;;;;;7393410;19;20493;-69
2023/09/19 09:37:32;;;;;;;2.03;1.20;;;20.60;1.00;;;;;;7392739;19;20014;-71
2023/09/19 09:40:19;;;;;;;2.67;1.10;;;20.50;1.00;;;;;;7393825;19;20009;-70
2023/09/19 09:42:52;;;;;;;2.83;1.15;;;21.10;1.00;;;;;;7393232;19;20011;-71
2023/09/19 09:45:28;;;;;;;3.30;1.05;;;21.00;1.00;;;;;;7390860;19;20018;-70
2023/09/19 09:48:03;;;;;;;1.30;0.90;;;20.90;1.00;;;;;;7388250;19;20381;-70
2023/09/19 09:50:44;;;;;;;2.60;1.00;;;21.20;1.00;;;;;;7389576;19;20018;-70
2023/09/19 09:53:29;;;;;;;3.92;1.15;;;21.00;1.00;;;;;;7391392;19;20010;-70
2023/09/19 09:56:03;;;;;;;1.42;0.93;;;21.00;1.00;;;;;;7393756;19;20383;-70
2023/09/19 09:58:35;;;;;;;1.42;0.80;;;20.90;1.00;;;;;;7393419;19;20014;-71
2023/09/19 10:01:08;;;;;;;2.78;0.90;;;20.90;1.00;;;;;;7392758;19;20015;-71
2023/09/19 10:03:44;;;;;;;2.17;1.23;;;21.00;1.00;;;;;;7393768;19;20018;-69
2023/09/19 10:06:30;;;;;;;2.17;1.00;;;21.20;1.00;;;;;;7392010;19;20018;-70
2023/09/19 10:09:06;;;;;;;3.22;1.20;;;21.10;1.00;;;;;;7392420;19;20011;-70
2023/09/19 10:11:37;;;;;;;3.67;0.98;;;21.20;1.00;;;;;;7393244;19;20019;-70
2023/09/19 10:14:10;;;;;;;3.53;1.10;;;20.40;1.00;;;;;;7392712;19;20082;-72
2023/09/19 10:16:44;;;;;;;2.37;1.00;;;20.40;1.00;;;;;;7392799;19;20015;-70
2023/09/19 10:19:18;;;;;;;4.00;1.15;;;20.70;1.00;;;;;;7392792;19;20283;-70
2023/09/19 10:21:48;;;;;;;2.92;1.73;;;20.70;1.00;;;;;;7393081;19;20014;-70
2023/09/19 10:24:24;;;;;;;3.28;0.98;;;20.60;1.00;;;;;;7392614;19;20125;-70
2023/09/19 10:26:57;;;;;;;2.58;1.25;;;20.70;1.00;;;;;;7391144;19;20022;-72
2023/09/19 10:29:31;;;;;;;1.45;0.88;;;21.00;1.00;;;;;;7392030;19;20018;-71
2023/09/19 10:32:04;;;;;;;2.03;1.00;;;21.60;1.00;;;;;;7389176;19;20015;-71
2023/09/19 10:34:36;;;;;;;2.38;1.33;;;21.80;1.00;;;;;;7392343;19;20022;-70
2023/09/19 10:37:09;;;;;;;2.67;0.90;;;21.80;1.00;;;;;;7391273;19;20529;-69
2023/09/19 10:39:43;;;;;;;1.95;1.00;;;21.60;1.00;;;;;;7391341;19;20082;-70
2023/09/19 10:42:17;;;;;;;;;;;21.40;1.00;;;;;;7392158;19;20445;-71
2023/09/19 10:44:49;;;;;;;2.10;0.90;;;21.40;1.00;;;;;;7392365;19;19919;-70
2023/09/19 10:47:20;;;;;;;1.38;0.88;;;21.60;1.00;;;;;;7389927;19;20487;-70
2023/09/19 10:49:50;;;;;;;1.65;0.82;;;21.80;1.00;;;;;;7391595;19;20007;-71
2023/09/19 10:52:26;;;;;;;3.67;1.05;;;21.40;1.00;;;;;;7390051;19;20043;-72
2023/09/19 10:55:01;;;;;;;2.88;1.13;;;21.20;1.00;;;;;;7389848;19;20018;-71
2023/09/19 10:57:33;;;;;;;2.67;1.20;;;20.60;1.00;;;;;;7389896;19;20506;-69
2023/09/19 11:00:21;;;;;;;3.30;1.30;;;20.70;1.00;;;;;;7390496;19;20563;-71
2023/09/19 11:03:21;;;;;;;4.30;1.25;;;20.70;1.00;;;;;;7387674;19;20011;-69
2023/09/19 11:06:14;;;;;;;1.95;1.08;;;20.60;1.00;;;;;;7389088;19;20017;-70
2023/09/19 11:09:21;;;;;;;2.92;1.05;;;20.40;1.00;;;;;;7389511;19;20014;-70
2023/09/19 11:11:57;;;;;;;2.72;0.98;;;20.50;1.00;;;;;;7389669;19;20003;-70
2023/09/19 11:14:41;;;;;;;6.13;1.10;;;20.50;1.00;;;;;;7390668;19;20027;-70
2023/09/19 11:17:46;;;;;;;2.45;1.20;;;20.50;1.00;;;;;;7388560;19;20144;-69
2023/09/19 11:20:25;;;;;;;4.68;1.20;;;20.50;1.00;;;;;;7391300;19;20014;-70
2023/09/19 11:23:22;;;;;;;2.47;1.20;;;20.00;1.00;;;;;;7389484;19;20014;-69
2023/09/19 11:25:54;;;;;;;1.88;1.10;;;20.20;1.00;;;;;;7390563;19;20086;-70
2023/09/19 11:28:35;;;;;;;1.85;1.00;;;20.20;1.00;;;;;;7389691;19;20011;-70
2023/09/19 11:31:37;;;;;;;2.58;1.10;;;20.50;1.00;;;;;;7388064;19;20086;-71
2023/09/19 11:34:41;;;;;;;2.85;0.93;;;20.70;1.00;;;;;;7389871;19;20044;-70
2023/09/19 11:38:07;;;;;;;3.22;1.73;;;20.80;1.00;;;;;;7388178;19;20019;-71
2023/09/19 11:40:37;;;;;;;1.80;1.00;;;21.00;1.00;;;;;;7387933;19;20039;-70
2023/09/19 11:43:35;;;;;;;2.65;1.15;;;21.00;1.00;;;;;;7386740;19;20010;-70
2023/09/19 11:46:06;;;;;;;1.13;0.95;;;20.90;1.00;;;;;;7389698;19;20006;-71
2023/09/19 11:48:41;;;;;;;3.67;1.20;;;20.60;1.00;;;;;;7388798;19;20078;-70
2023/09/19 11:51:19;;;;;;;3.30;1.10;;;20.90;1.00;;;;;;7388864;19;20026;-70
2023/09/19 11:53:50;;;;;;;3.83;1.15;;;20.80;1.00;;;;;;7389797;19;20003;-71
2023/09/19 11:56:21;;;;;;;2.65;1.00;;;21.10;1.00;;;;;;7389803;19;21079;-70
2023/09/19 11:58:59;;;;;;;3.15;1.15;;;21.30;1.00;;;;;;7388325;19;20733;-71
2023/09/19 12:01:33;;;;;;;3.25;0.90;;;21.50;1.00;;;;;;7388516;19;20007;-70
2023/09/19 12:04:05;;;;;;;3.72;1.35;;;21.40;1.00;;;;;;7389339;19;20027;-70
2023/09/19 12:06:38;;;;;;;3.95;1.30;;;21.40;1.00;;;;;;7388287;19;20007;-70
2023/09/19 12:09:11;;;;;;;2.30;1.20;;;21.20;1.00;;;;;;7389464;19;20028;-71
2023/09/19 12:11:45;;;;;;;4.70;0.90;;;21.20;1.00;;;;;;7389165;19;20102;-69
2023/09/19 12:14:25;;;;;;;4.95;1.35;;;21.10;1.00;;;;;;7389372;19;20018;-70
2023/09/19 12:16:57;;;;;;;5.65;1.35;;;21.60;1.00;;;;;;7388129;19;20086;-71
2023/09/19 12:19:28;;;;;;;2.60;1.20;;;21.80;1.00;;;;;;7389393;19;20023;-71
2023/09/19 12:22:04;;;;;;;2.08;1.00;;;22.10;1.00;;;;;;7387474;19;20074;-70
2023/09/19 12:24:38;;;;;;;1.98;1.10;;;22.10;1.00;;;;;;7388978;19;20006;-70
2023/09/19 12:27:09;;;;;;;2.55;1.00;;;22.30;1.00;;;;;;7387397;19;20003;-71
2023/09/19 12:29:49;;;;;;;2.25;0.90;;;22.30;1.00;;;;;;7388207;19;20013;-71
2023/09/19 12:32:21;;;;;;;1.92;1.08;;;22.00;1.00;;;;;;7386898;19;20014;-70
2023/09/19 12:34:55;;;;;;;3.28;1.05;;;22.70;1.00;;;;;;7387855;19;20111;-71
2023/09/19 12:37:29;;;;;;;3.13;1.00;;;22.90;1.00;;;;;;7387122;19;20091;-70
2023/09/19 12:40:15;;;;;;;4.88;1.10;;;22.50;1.00;;;;;;7387586;19;20014;-71
2023/09/19 12:42:47;;;;;;;3.85;1.30;;;23.00;1.00;;;;;;7386029;19;20086;-70
2023/09/19 12:45:21;;;;;;;1.58;0.77;;;23.10;1.00;;;;;;7388283;19;20018;-71
2023/09/19 12:48:29;;;;;;;1.95;1.00;;;22.40;1.00;;;;;;7386728;19;20015;-70
2023/09/19 12:51:06;;;;;;;2.00;0.90;;;22.50;1.00;;;;;;7386492;19;20027;-71
2023/09/19 12:53:40;;;;;;;2.17;0.77;;;21.90;1.00;;;;;;7387277;19;20010;-70
2023/09/19 12:56:13;;;;;;;1.25;0.80;;;22.00;1.00;;;;;;7392606;19;20021;-70
2023/09/19 12:58:54;;;;;;;2.75;1.00;;;21.60;1.00;;;;;;7393212;19;20007;-70
2023/09/19 13:01:29;;;;;;;3.45;1.08;;;21.90;1.00;;;;;;7393484;19;20015;-69
2023/09/19 13:04:18;;;;;;;2.53;0.85;;;22.40;1.00;;;;;;7393653;19;20007;-70
2023/09/19 13:06:49;;;;;;;2.40;0.95;;;22.60;1.00;;;;;;7393213;19;20023;-71
2023/09/19 13:09:21;;;;;;;3.78;1.05;;;22.70;1.00;;;;;;7393972;19;20010;-70
2023/09/19 13:11:53;;;;;;;6.93;1.35;;;22.50;1.00;;;;;;7392720;19;20006;-70
2023/09/19 13:14:28;;;;;;;1.75;1.10;;;22.80;1.00;;;;;;7394209;19;20333;-71
2023/09/19 13:17:04;;;;;;;2.08;0.90;;;22.90;1.00;;;;;;7392812;19;20006;-71
2023/09/19 13:19:43;;;;;;;3.80;0.90;;;23.10;1.00;;;;;;7394063;19;20021;-70
2023/09/19 13:22:42;;;;;;;2.00;1.00;;;23.20;1.00;;;;;;7392936;19;20027;-71
2023/09/19 13:25:17;;;;;;;4.10;1.10;;;22.70;1.00;;;;;;7392724;19;20010;-70
2023/09/19 13:27:51;;;;;;;4.93;1.00;;;22.60;1.00;;;;;;7393273;19;20447;-71